Time;durP1;ratioP1;P1;durP2;ratioP2;P2;SDS_P1;SDS_P2;PMS_P1;PMS_P2;Temp;Humidity;BMP_temperature;BMP_pressure;BME280_temperature;BME280_humidity;BME280_pressure;Samples;Min_cycle;Max_cycle;Signal;HPM_P1;HPM_P2
2021/08/02 00:01:39;;;;;;;2.17;0.90;;;;;;;18.85;50.67;101075.78;3578723;40;20858;-77
2021/08/02 00:04:12;;;;;;;4.00;1.23;;;;;;;18.81;50.58;101075.13;3568141;40;20064;-77
2021/08/02 00:06:53;;;;;;;2.33;1.00;;;;;;;18.80;50.89;101072.53;3569685;40;20081;-77
2021/08/02 00:09:29;;;;;;;2.20;0.88;;;;;;;18.72;50.79;101070.28;3573319;40;20057;-77
2021/08/02 00:12:03;;;;;;;2.22;0.88;;;;;;;18.74;50.96;101075.50;3572254;40;20079;-77
2021/08/02 00:14:31;;;;;;;3.22;1.48;;;;;;;18.69;50.97;101086.31;3565537;40;20051;-77
2021/08/02 00:17:05;;;;;;;3.75;1.23;;;;;;;18.66;50.91;101075.88;3579412;40;20104;-78
2021/08/02 00:19:33;;;;;;;0.73;0.52;;;;;;;18.64;50.70;101083.84;3573873;40;20089;-77
2021/08/02 00:22:02;;;;;;;2.53;1.17;;;;;;;18.57;51.22;101076.31;3577950;40;20055;-77
2021/08/02 00:24:30;;;;;;;2.63;0.93;;;;;;;18.57;51.18;101081.63;3585166;40;20097;-77
2021/08/02 00:26:59;;;;;;;2.70;1.13;;;;;;;18.57;51.11;101076.31;3577021;40;20092;-77
2021/08/02 00:29:30;;;;;;;2.83;1.15;;;;;;;18.56;50.61;101079.91;3577741;40;20558;-77
2021/08/02 00:32:00;;;;;;;2.35;1.00;;;;;;;18.44;50.84;101069.91;3581573;40;20089;-77
2021/08/02 00:34:29;;;;;;;2.88;1.15;;;;;;;18.49;50.83;101081.97;3577751;40;20069;-77
2021/08/02 00:37:07;;;;;;;3.23;1.00;;;;;;;18.46;50.97;101078.66;3576424;40;20055;-77
2021/08/02 00:39:57;;;;;;;1.73;0.90;;;;;;;18.47;50.75;101077.72;3571780;40;20275;-77
2021/08/02 00:42:48;;;;;;;4.55;1.27;;;;;;;18.45;50.69;101077.78;3573933;40;20138;-77
2021/08/02 00:45:20;;;;;;;1.67;0.93;;;;;;;18.43;50.80;101079.66;3575296;40;20056;-77
2021/08/02 00:47:51;;;;;;;3.97;0.93;;;;;;;18.40;50.96;101078.03;3573507;40;20081;-77
2021/08/02 00:50:28;;;;;;;2.47;1.17;;;;;;;18.36;50.55;101076.47;3568087;40;20103;-77
2021/08/02 00:53:05;;;;;;;1.70;1.00;;;;;;;18.29;50.61;101072.38;3575147;40;20049;-77
2021/08/02 00:55:35;;;;;;;;;;;;;;;18.32;50.39;101082.81;3572728;40;20085;-77
2021/08/02 00:58:08;;;;;;;1.23;0.70;;;;;;;18.27;50.79;101084.81;3584132;40;19946;-78
2021/08/02 01:00:37;;;;;;;1.65;0.93;;;;;;;18.16;51.21;101068.63;3552616;40;20057;-77
2021/08/02 01:03:09;;;;;;;4.32;0.90;;;;;;;18.23;51.06;101080.63;3582023;40;20505;-77
2021/08/02 01:05:47;;;;;;;2.78;0.88;;;;;;;18.20;50.82;101083.44;3573829;40;20520;-77
2021/08/02 01:08:28;;;;;;;4.03;1.10;;;;;;;18.20;50.75;101082.53;3574013;40;20086;-78
2021/08/02 01:11:12;;;;;;;2.75;1.00;;;;;;;18.18;50.81;101079.97;3577962;40;20054;-78
2021/08/02 01:13:42;;;;;;;2.22;1.00;;;;;;;18.14;51.07;101075.75;3568155;40;20049;-77
2021/08/02 01:16:11;;;;;;;1.40;0.70;;;;;;;18.11;50.80;101078.56;3568679;40;20048;-78
2021/08/02 01:18:45;;;;;;;2.65;1.10;;;;;;;18.10;50.96;101079.50;3581753;40;20061;-78
2021/08/02 01:21:20;;;;;;;3.03;1.02;;;;;;;18.05;50.72;101084.16;3574213;40;20045;-77
2021/08/02 01:23:55;;;;;;;2.13;0.95;;;;;;;18.05;51.04;101089.44;3570652;40;22604;-78
2021/08/02 01:26:43;;;;;;;2.67;1.08;;;;;;;18.03;50.74;101089.50;3577090;40;20061;-77
2021/08/02 01:29:59;;;;;;;2.85;1.10;;;;;;;18.01;50.68;101077.31;3571100;40;20092;-77
2021/08/02 01:32:31;;;;;;;3.45;1.30;;;;;;;17.93;51.48;101080.28;3569464;40;20434;-77
2021/08/02 01:35:04;;;;;;;2.47;1.30;;;;;;;17.88;51.22;101077.00;3565143;40;20049;-77
2021/08/02 01:37:31;;;;;;;1.35;0.80;;;;;;;17.88;51.40;101077.88;3578323;40;20049;-78
2021/08/02 01:40:02;;;;;;;2.60;1.35;;;;;;;17.89;51.09;101090.16;3562847;40;21245;-77
2021/08/02 01:42:35;;;;;;;1.83;0.98;;;;;;;17.73;51.63;101068.00;3571730;40;20064;-77
2021/08/02 01:45:05;;;;;;;2.20;0.93;;;;;;;17.83;51.46;101087.78;3586171;40;20060;-77
2021/08/02 01:47:54;;;;;;;3.03;1.25;;;;;;;17.80;51.41;101082.66;3566782;40;20063;-77
2021/08/02 01:50:28;;;;;;;2.25;0.80;;;;;;;17.77;51.39;101085.44;3587238;40;20082;-77
2021/08/02 01:53:30;;;;;;;2.13;0.98;;;;;;;17.73;50.86;101083.88;3578235;40;20112;-77
2021/08/02 01:56:09;;;;;;;1.70;0.82;;;;;;;17.66;51.87;101082.41;3571565;40;20068;-77
2021/08/02 01:58:46;;;;;;;2.22;1.30;;;;;;;17.65;51.63;101083.34;3558077;40;20458;-77
2021/08/02 02:01:32;;;;;;;2.70;1.20;;;;;;;17.61;52.33;101084.41;3569704;40;20064;-78
2021/08/02 02:04:06;;;;;;;2.55;1.15;;;;;;;17.62;52.40;101091.41;3577587;40;20471;-77
2021/08/02 02:06:43;;;;;;;3.20;1.10;;;;;;;17.59;52.83;101087.13;3562907;40;20392;-77
2021/08/02 02:09:16;;;;;;;2.83;1.35;;;;;;;17.57;52.51;101088.09;3567537;40;20060;-78
2021/08/02 02:11:49;;;;;;;2.92;1.27;;;;;;;17.59;52.52;101096.84;3578615;40;20060;-77
2021/08/02 02:14:28;;;;;;;1.98;0.95;;;;;;;17.53;52.60;101083.88;3579240;40;20148;-77
2021/08/02 02:16:58;;;;;;;2.30;1.33;;;;;;;17.41;52.87;101060.69;3566539;40;20702;-78
2021/08/02 02:19:30;;;;;;;3.22;1.60;;;;;;;17.53;53.12;101081.25;3581223;40;20772;-77
2021/08/02 02:22:04;;;;;;;2.30;1.20;;;;;;;17.52;52.60;101082.19;3565949;40;20089;-77
2021/08/02 02:24:43;;;;;;;2.25;1.10;;;;;;;17.48;52.42;101073.53;3574579;40;20045;-77
2021/08/02 02:27:14;;;;;;;3.72;1.55;;;;;;;17.43;52.80;101079.94;3567197;40;20346;-77
2021/08/02 02:29:49;;;;;;;1.58;0.85;;;;;;;17.46;53.10;101080.69;3561441;40;20057;-77
2021/08/02 02:32:19;;;;;;;2.58;1.15;;;;;;;17.46;52.92;101080.69;3565369;40;20083;-77
2021/08/02 02:34:50;;;;;;;2.20;1.17;;;;;;;17.44;53.07;101071.13;3579932;40;20312;-77
2021/08/02 02:37:24;;;;;;;3.75;1.48;;;;;;;17.41;52.84;101071.25;3571321;40;20606;-78
2021/08/02 02:39:57;;;;;;;3.10;1.25;;;;;;;17.43;52.96;101074.66;3566175;40;20427;-76
2021/08/02 02:42:26;;;;;;;3.00;1.45;;;;;;;17.41;53.00;101076.53;3580774;40;20141;-77
2021/08/02 02:44:57;;;;;;;3.03;1.42;;;;;;;17.42;53.29;101073.81;3565586;40;20469;-77
2021/08/02 02:47:34;;;;;;;3.17;1.38;;;;;;;17.43;52.44;101077.31;3581589;40;20053;-78
2021/08/02 02:50:04;;;;;;;2.63;1.10;;;;;;;17.40;52.88;101080.09;3563842;40;20068;-77
2021/08/02 02:52:32;;;;;;;2.95;1.20;;;;;;;17.40;53.17;101080.09;3582307;40;20108;-78
2021/08/02 02:55:02;;;;;;;4.00;1.50;;;;;;;17.38;53.27;101078.38;3563631;40;20409;-77
2021/08/02 02:57:32;;;;;;;3.22;1.60;;;;;;;17.29;53.45;101062.97;3575324;40;20053;-77
2021/08/02 03:00:02;;;;;;;3.15;1.50;;;;;;;17.25;53.55;101056.09;3568359;40;20151;-77
2021/08/02 03:02:30;;;;;;;3.55;1.60;;;;;;;17.30;53.31;101067.31;3562556;40;20081;-77
2021/08/02 03:04:59;;;;;;;1.77;0.98;;;;;;;17.23;53.29;101063.22;3588228;40;20118;-77
2021/08/02 03:07:31;;;;;;;3.95;1.50;;;;;;;17.29;52.90;101076.16;3578079;40;20178;-77
2021/08/02 03:10:00;;;;;;;2.55;1.30;;;;;;;17.25;52.80;101071.09;3581848;40;20089;-77
2021/08/02 03:12:30;;;;;;;2.85;1.20;;;;;;;17.25;53.04;101077.22;3568995;40;20084;-78
2021/08/02 03:14:58;;;;;;;2.88;1.38;;;;;;;17.18;53.16;101073.13;3585610;40;20053;-77
2021/08/02 03:17:31;;;;;;;4.70;1.40;;;;;;;17.21;53.34;101078.28;3567776;40;20088;-78
2021/08/02 03:20:05;;;;;;;3.90;1.50;;;;;;;17.15;53.25;101075.06;3590778;40;20060;-77
2021/08/02 03:22:39;;;;;;;5.85;1.52;;;;;;;17.13;53.40;101083.03;3585053;40;20069;-78
2021/08/02 03:25:13;;;;;;;3.88;1.40;;;;;;;17.08;53.88;101088.53;3578389;40;20082;-78
2021/08/02 03:27:53;;;;;;;3.90;1.40;;;;;;;17.03;53.18;101081.72;3578735;40;20057;-77
2021/08/02 03:30:21;;;;;;;5.22;1.35;;;;;;;16.89;53.57;101069.13;3571553;40;20105;-77
2021/08/02 03:32:51;;;;;;;2.10;1.20;;;;;;;16.77;53.91;101067.84;3576103;40;20107;-77
2021/08/02 03:35:22;;;;;;;4.45;1.50;;;;;;;16.75;53.58;101079.41;3585961;40;20037;-78
2021/08/02 03:37:53;;;;;;;3.05;1.27;;;;;;;16.66;53.62;101080.63;3571390;40;20462;-78
2021/08/02 03:40:22;;;;;;;2.25;1.13;;;;;;;16.56;54.04;101074.00;3562871;40;20049;-78
2021/08/02 03:42:50;;;;;;;3.30;1.40;;;;;;;16.48;54.06;101082.25;3576160;40;20581;-77
2021/08/02 03:45:19;;;;;;;4.45;2.00;;;;;;;16.38;53.90;101082.69;3587365;40;20435;-78
2021/08/02 03:47:48;;;;;;;3.30;1.50;;;;;;;16.25;54.32;101077.91;3578298;40;20049;-77
2021/08/02 03:50:15;;;;;;;4.95;2.17;;;;;;;16.20;54.35;101086.91;3576826;40;20089;-77
2021/08/02 03:52:41;;;;;;;3.92;1.60;;;;;;;16.07;53.97;101079.50;3589029;40;20093;-77
2021/08/02 03:55:11;;;;;;;4.37;1.83;;;;;;;16.10;54.20;101096.97;3581306;40;20431;-78
2021/08/02 03:57:39;;;;;;;3.53;1.50;;;;;;;15.91;54.17;101083.63;3580566;40;20446;-78
2021/08/02 04:00:10;;;;;;;3.15;1.50;;;;;;;15.85;54.17;101088.28;3567534;40;20056;-77
2021/08/02 04:02:43;;;;;;;2.85;1.25;;;;;;;15.86;54.54;101105.81;3569875;40;20103;-77
2021/08/02 04:05:11;;;;;;;3.38;1.58;;;;;;;15.67;54.50;101085.44;3568579;40;20460;-77
2021/08/02 04:07:41;;;;;;;5.43;1.90;;;;;;;15.53;54.42;101072.75;3572412;40;20057;-77
2021/08/02 04:10:13;;;;;;;5.88;1.92;;;;;;;15.61;54.68;101096.16;3581967;40;20493;-77
2021/08/02 04:13:06;;;;;;;3.67;1.60;;;;;;;15.57;53.71;101094.56;3574145;40;20052;-77
2021/08/02 04:15:34;;;;;;;8.30;1.60;;;;;;;15.37;55.10;101076.03;3580310;40;20064;-77
2021/08/02 04:18:03;;;;;;;;;;;;;;;15.43;52.99;101088.97;3562492;40;20154;-77
2021/08/02 04:20:55;;;;;;;3.05;1.33;;;;;;;15.33;53.78;101080.53;3568804;40;20225;-78
2021/08/02 04:23:56;;;;;;;3.78;1.35;;;;;;;15.23;53.83;101090.53;3580805;40;20423;-77
2021/08/02 04:26:24;;;;;;;4.40;1.50;;;;;;;15.07;55.55;101084.09;3582798;40;20072;-77
2021/08/02 04:28:56;;;;;;;11.55;2.08;;;;;;;15.01;55.74;101089.59;3585310;40;20056;-77
2021/08/02 04:31:29;;;;;;;4.57;1.70;;;;;;;14.92;55.52;101089.91;3558182;40;20111;-78
2021/08/02 04:34:01;;;;;;;3.13;1.30;;;;;;;14.68;55.94;101066.16;3568041;40;20041;-77
2021/08/02 04:36:30;;;;;;;4.40;1.50;;;;;;;14.62;56.12;101061.09;3571141;40;20052;-77
2021/08/02 04:38:59;;;;;;;3.83;1.52;;;;;;;14.66;56.21;101082.91;3577230;40;20490;-78
2021/08/02 04:41:28;;;;;;;3.90;1.33;;;;;;;14.67;56.41;101095.97;3576925;40;20049;-77
2021/08/02 04:43:59;;;;;;;6.18;1.65;;;;;;;14.45;56.44;101071.28;3576600;40;20045;-78
2021/08/02 04:46:27;;;;;;;3.33;1.40;;;;;;;14.49;56.49;101080.81;3581325;40;20566;-77
2021/08/02 04:48:56;;;;;;;4.68;1.73;;;;;;;14.44;56.89;101082.69;3581158;40;20037;-77
2021/08/02 04:51:23;;;;;;;4.13;1.60;;;;;;;14.52;56.63;101107.00;3583186;40;20052;-77
2021/08/02 04:53:50;;;;;;;3.45;1.70;;;;;;;14.47;57.50;101103.63;3577018;40;20112;-77
2021/08/02 04:56:25;;;;;;;5.10;1.85;;;;;;;14.39;56.06;101087.22;3570793;40;20045;-78
2021/08/02 04:58:54;;;;;;;4.57;1.55;;;;;;;14.30;56.91;101091.03;3566780;40;20786;-77
2021/08/02 05:01:22;;;;;;;2.63;1.25;;;;;;;14.15;56.54;101076.63;3559998;40;20091;-78
2021/08/02 05:03:54;;;;;;;3.80;1.60;;;;;;;14.27;56.43;101096.38;3563661;40;20053;-77
2021/08/02 05:06:31;;;;;;;4.50;1.73;;;;;;;14.22;56.61;101093.88;3575495;40;20045;-77
2021/08/02 05:09:02;;;;;;;4.25;1.67;;;;;;;14.25;57.47;101103.47;3565204;40;20114;-77
2021/08/02 05:11:29;;;;;;;3.72;1.40;;;;;;;14.10;57.62;101094.28;3572661;40;20089;-77
2021/08/02 05:13:58;;;;;;;4.25;1.50;;;;;;;14.09;58.03;101096.94;3571929;40;20800;-77
2021/08/02 05:16:27;;;;;;;2.28;1.13;;;;;;;14.00;57.92;101092.84;3563018;40;20048;-78
2021/08/02 05:18:55;;;;;;;4.07;1.75;;;;;;;14.00;57.94;101098.09;3567038;40;20058;-78
2021/08/02 05:21:22;;;;;;;;;;;;;;;14.03;55.33;101103.25;3558169;40;20042;-77
2021/08/02 05:23:49;;;;;;;;;;;;;;;14.00;55.28;101105.97;3554357;40;19936;-77
2021/08/02 05:26:16;;;;;;;4.45;1.75;;;;;;;13.85;58.44;101072.31;3566768;40;19968;-77
2021/08/02 05:28:45;;;;;;;4.63;1.37;;;;;;;13.89;58.14;101084.41;3569174;40;20041;-77
2021/08/02 05:31:13;;;;;;;3.72;1.45;;;;;;;13.85;58.40;101082.81;3574718;40;20831;-77
2021/08/02 05:33:43;;;;;;;4.53;1.30;;;;;;;13.73;58.49;101058.63;3575808;40;20049;-78
2021/08/02 05:36:10;;;;;;;4.63;1.58;;;;;;;13.72;59.14;101059.53;3555030;40;20045;-78
2021/08/02 05:38:40;;;;;;;3.55;1.35;;;;;;;13.67;59.05;101053.56;3569984;40;20056;-78
2021/08/02 05:41:08;;;;;;;3.72;1.52;;;;;;;13.81;59.04;101073.31;3574397;40;20113;-78
2021/08/02 05:43:36;;;;;;;4.07;1.50;;;;;;;13.82;59.06;101067.16;3577641;40;20057;-77
2021/08/02 05:46:09;;;;;;;3.78;1.45;;;;;;;13.77;58.32;101059.41;3570635;40;20045;-77
2021/08/02 05:48:36;;;;;;;3.22;1.40;;;;;;;13.69;59.42;101057.03;3551884;40;20587;-77
2021/08/02 05:51:04;;;;;;;2.60;1.47;;;;;;;13.76;59.44;101058.56;3577882;40;20076;-77
2021/08/02 05:53:31;;;;;;;3.58;1.58;;;;;;;13.76;59.56;101066.44;3583723;40;20064;-78
2021/08/02 05:55:59;;;;;;;3.30;1.17;;;;;;;13.91;59.91;101093.13;3565705;40;20049;-78
2021/08/02 05:58:35;;;;;;;3.35;1.40;;;;;;;13.90;58.72;101086.16;3583884;40;20383;-77
2021/08/02 06:01:28;;;;;;;5.30;1.60;;;;;;;13.97;58.16;101090.31;3573611;40;20475;-77
2021/08/02 06:03:55;;;;;;;2.70;1.25;;;;;;;13.95;59.39;101100.88;3589491;40;20380;-78
2021/08/02 06:06:22;;;;;;;2.40;1.10;;;;;;;13.81;59.84;101070.69;3582611;40;20054;-77
2021/08/02 06:08:49;;;;;;;4.10;1.47;;;;;;;13.81;60.02;101065.44;3590593;40;20067;-77
2021/08/02 06:11:17;;;;;;;3.95;1.67;;;;;;;14.05;60.07;101096.19;3580801;40;20350;-77
2021/08/02 06:13:48;;;;;;;3.63;1.45;;;;;;;13.99;59.92;101075.38;3591622;40;20563;-77
2021/08/02 06:16:20;;;;;;;3.95;1.35;;;;;;;14.14;59.82;101095.91;3569662;40;20052;-77
2021/08/02 06:19:03;;;;;;;;;;;;;;;14.26;57.37;101095.53;3582280;40;20083;-77
2021/08/02 06:21:30;;;;;;;2.88;1.20;;;;;;;14.25;59.61;101085.94;3579298;40;19932;-78
2021/08/02 06:23:59;;;;;;;3.30;1.40;;;;;;;14.26;59.63;101079.75;3577707;40;20313;-77
2021/08/02 06:26:26;;;;;;;5.45;2.10;;;;;;;14.22;59.64;101072.03;3593115;40;20516;-77
2021/08/02 06:28:53;;;;;;;3.85;1.75;;;;;;;14.21;59.96;101065.06;3574479;40;20083;-77
2021/08/02 06:31:21;;;;;;;;;;;;;;;14.46;57.41;101096.66;3589873;40;20063;-76
2021/08/02 06:33:56;;;;;;;2.85;1.42;;;;;;;14.44;59.20;101086.16;3582256;40;19924;-77
2021/08/02 06:36:50;;;;;;;4.60;1.73;;;;;;;14.56;58.01;101092.00;3582845;40;20084;-77
2021/08/02 06:39:17;;;;;;;3.92;1.50;;;;;;;14.50;59.88;101085.19;3575198;40;20073;-77
2021/08/02 06:41:44;;;;;;;4.07;1.63;;;;;;;14.57;60.15;101078.78;3569806;40;20068;-77
2021/08/02 06:44:12;;;;;;;6.93;1.88;;;;;;;14.50;60.38;101062.38;3590026;40;20059;-77
2021/08/02 06:46:39;;;;;;;3.38;1.80;;;;;;;14.57;59.98;101068.28;3591830;40;20117;-78
2021/08/02 06:49:07;;;;;;;6.03;1.85;;;;;;;14.68;59.76;101071.41;3584621;40;20422;-77
2021/08/02 06:51:33;;;;;;;;;;;;;;;14.84;57.67;101073.50;3589160;40;20048;-78
2021/08/02 06:54:01;;;;;;;2.65;1.50;;;;;;;14.87;59.67;101073.41;3583987;40;19960;-78
2021/08/02 06:56:33;;;;;;;4.20;1.20;;;;;;;14.93;59.25;101066.16;3573565;40;20828;-77
2021/08/02 06:59:02;;;;;;;4.07;1.63;;;;;;;14.97;59.75;101070.41;3573917;40;20057;-77
2021/08/02 07:01:36;;;;;;;3.03;1.20;;;;;;;15.08;59.13;101077.91;3575557;40;20053;-78
2021/08/02 07:04:04;;;;;;;3.40;1.35;;;;;;;15.15;59.64;101084.66;3570047;40;20061;-78
2021/08/02 07:06:31;;;;;;;3.92;1.65;;;;;;;15.18;59.69;101081.09;3568356;40;20127;-78
2021/08/02 07:09:11;;;;;;;4.03;1.35;;;;;;;15.26;58.46;101074.66;3582650;40;20063;-77
2021/08/02 07:11:40;;;;;;;4.57;1.42;;;;;;;15.30;59.10;101070.97;3576670;40;20075;-77
2021/08/02 07:14:09;;;;;;;2.75;1.45;;;;;;;15.28;59.18;101046.50;3572665;40;20052;-77
2021/08/02 07:16:39;;;;;;;3.25;1.20;;;;;;;15.43;59.12;101060.00;3579652;40;20097;-77
2021/08/02 07:19:33;;;;;;;3.45;1.48;;;;;;;15.53;58.35;101062.25;3568722;40;20052;-77
2021/08/02 07:22:06;;;;;;;4.07;1.60;;;;;;;15.55;58.86;101046.38;3581974;40;20044;-77
2021/08/02 07:24:34;;;;;;;3.88;1.55;;;;;;;15.60;58.99;101056.72;3565687;40;20057;-76
2021/08/02 07:27:05;;;;;;;;;;;;;;;15.68;57.32;101050.31;3575444;40;20064;-78
2021/08/02 07:29:39;;;;;;;3.30;1.33;;;;;;;15.65;58.10;101039.88;3576619;40;19941;-77
2021/08/02 07:32:06;;;;;;;3.63;1.45;;;;;;;15.66;58.26;101051.25;3566743;40;20041;-78
2021/08/02 07:34:35;;;;;;;3.17;1.35;;;;;;;15.61;58.60;101035.59;3581969;40;20119;-77
2021/08/02 07:37:03;;;;;;;2.47;1.10;;;;;;;15.58;58.64;101027.84;3573865;40;20446;-77
2021/08/02 07:39:57;;;;;;;3.47;1.63;;;;;;;15.83;57.53;101054.97;3570637;40;25582;-77
2021/08/02 07:42:26;;;;;;;3.55;1.20;;;;;;;15.75;58.80;101038.59;3580110;40;20433;-77
2021/08/02 07:44:54;;;;;;;3.17;1.20;;;;;;;15.85;58.50;101048.78;3575334;40;20370;-78
2021/08/02 07:47:22;;;;;;;3.33;1.33;;;;;;;15.85;58.55;101035.63;3574902;40;20764;-77
2021/08/02 07:49:51;;;;;;;3.55;1.48;;;;;;;15.96;58.36;101050.06;3565397;40;20397;-76
2021/08/02 07:52:20;;;;;;;4.00;1.40;;;;;;;15.96;58.49;101043.94;3575168;40;20069;-77
2021/08/02 07:54:51;;;;;;;2.85;1.30;;;;;;;16.07;58.19;101057.56;3580358;40;20044;-78
2021/08/02 07:57:20;;;;;;;3.45;1.30;;;;;;;16.09;57.95;101051.31;3587846;40;20049;-78
2021/08/02 07:59:47;;;;;;;3.22;1.13;;;;;;;16.10;58.18;101049.53;3556843;40;20052;-78
2021/08/02 08:02:15;;;;;;;6.53;1.30;;;;;;;16.21;58.19;101054.38;3585962;40;20057;-78
2021/08/02 08:04:42;;;;;;;3.17;1.20;;;;;;;16.04;57.71;101020.81;3576217;40;21088;-78
2021/08/02 08:07:12;;;;;;;2.67;1.15;;;;;;;16.31;58.08;101061.84;3581927;40;20084;-78
2021/08/02 08:09:39;;;;;;;2.05;1.00;;;;;;;16.31;57.73;101047.81;3576608;40;20081;-78
2021/08/02 08:12:08;;;;;;;4.18;1.27;;;;;;;16.43;57.40;101059.66;3584019;40;20107;-79
2021/08/02 08:14:35;;;;;;;2.22;0.95;;;;;;;16.47;57.09;101061.19;3567609;40;20052;-78
2021/08/02 08:19:57;;;;;;;5.53;1.30;;;;;;;16.40;56.85;101038.66;3556612;40;20051;-80
2021/08/02 08:22:30;;;;;;;3.45;1.25;;;;;;;16.56;56.68;101043.22;3564229;40;20048;-80
2021/08/02 08:24:59;;;;;;;3.88;1.48;;;;;;;16.59;56.35;101042.25;3555147;40;20052;-79
2021/08/02 08:27:27;;;;;;;2.88;1.23;;;;;;;16.67;56.58;101058.59;3559076;40;20037;-80
2021/08/02 08:29:55;;;;;;;2.67;1.17;;;;;;;16.71;56.53;101054.06;3544039;40;20041;-80
2021/08/02 08:32:23;;;;;;;2.10;1.02;;;;;;;16.74;56.01;101049.56;3601819;23;20099;-78
2021/08/02 08:34:50;;;;;;;3.05;1.30;;;;;;;16.70;56.21;101042.66;3577223;40;20048;-78
2021/08/02 08:37:22;;;;;;;3.95;1.25;;;;;;;16.78;56.07;101051.13;3578779;40;20115;-78
2021/08/02 08:39:55;;;;;;;2.65;1.10;;;;;;;16.79;56.09;101042.28;3582323;40;20072;-79
2021/08/02 08:42:27;;;;;;;3.08;1.35;;;;;;;16.86;56.18;101048.16;3579983;40;20056;-78
2021/08/02 08:44:55;;;;;;;3.42;1.20;;;;;;;16.73;56.34;101021.47;3576478;40;20068;-78
2021/08/02 08:47:22;;;;;;;4.60;1.30;;;;;;;16.79;55.94;101033.53;3573596;40;20822;-79
2021/08/02 08:49:51;;;;;;;3.77;1.40;;;;;;;16.85;55.44;101026.19;3567754;40;20057;-79
2021/08/02 08:52:18;;;;;;;3.63;1.40;;;;;;;17.03;55.71;101050.06;3579951;40;20394;-78
2021/08/02 08:54:46;;;;;;;5.47;1.30;;;;;;;17.07;55.27;101051.63;3565269;40;20045;-78
2021/08/02 08:57:21;;;;;;;2.28;1.02;;;;;;;16.95;55.74;101015.25;3568877;40;20136;-78
2021/08/02 08:59:52;;;;;;;2.47;1.20;;;;;;;17.16;55.79;101050.38;3563764;40;21465;-79
2021/08/02 09:02:29;;;;;;;2.60;1.13;;;;;;;17.21;55.47;101043.13;3575640;40;20057;-79
2021/08/02 09:04:58;;;;;;;2.45;1.27;;;;;;;17.17;55.90;101031.81;3559383;40;21536;-78
2021/08/02 09:07:40;;;;;;;2.15;1.10;;;;;;;17.32;55.62;101039.06;3569003;40;20057;-78
2021/08/02 09:10:10;;;;;;;2.38;1.15;;;;;;;17.12;55.41;101003.00;3576070;40;20048;-79
2021/08/02 09:12:52;;;;;;;3.20;1.40;;;;;;;17.43;55.39;101041.19;3568052;40;20080;-79
2021/08/02 09:15:39;;;;;;;4.05;1.60;;;;;;;17.54;55.19;101040.75;3568487;40;20053;-79
2021/08/02 09:18:20;;;;;;;3.97;1.50;;;;;;;17.53;54.82;101028.44;3557897;40;20045;-79
2021/08/02 09:21:37;;;;;;;3.55;1.58;;;;;;;17.68;54.91;101042.72;3551769;40;20860;-79
2021/08/02 09:24:05;;;;;;;3.65;1.40;;;;;;;17.68;54.66;101035.66;3579968;40;20083;-78
2021/08/02 09:26:36;;;;;;;;;;;;;;;17.82;54.82;101043.81;3582489;40;20084;-79
2021/08/02 09:29:04;;;;;;;3.38;1.58;;;;;;;17.69;53.70;101023.28;3570840;40;20689;-79
2021/08/02 09:31:37;;;;;;;3.58;1.45;;;;;;;17.86;53.85;101037.47;3580826;40;22150;-79
2021/08/02 09:34:08;;;;;;;2.92;1.30;;;;;;;17.74;53.82;101024.84;3557708;40;20076;-79
2021/08/02 09:36:53;;;;;;;4.15;1.25;;;;;;;17.72;53.22;101008.16;3566254;40;20060;-79
2021/08/02 09:39:21;;;;;;;4.47;1.58;;;;;;;17.89;52.95;101034.69;3568813;40;20057;-78
2021/08/02 09:41:48;;;;;;;2.58;1.13;;;;;;;17.82;53.18;101014.75;3582010;40;20445;-79
2021/08/02 09:44:24;;;;;;;1.88;0.93;;;;;;;18.16;53.40;101050.13;3579391;40;20154;-79
2021/08/02 09:46:58;;;;;;;3.03;1.40;;;;;;;18.21;52.81;101041.97;3572560;40;20116;-79
2021/08/02 09:49:31;;;;;;;2.15;0.85;;;;;;;18.22;52.70;101036.63;3565840;40;20072;-78
2021/08/02 09:52:07;;;;;;;2.20;1.35;;;;;;;18.29;52.90;101030.06;3566530;40;20049;-78
2021/08/02 09:54:34;;;;;;;3.83;1.47;;;;;;;18.33;51.38;101030.78;3567105;40;20069;-78
2021/08/02 09:57:02;;;;;;;2.67;1.23;;;;;;;18.37;52.91;101032.34;3582208;40;20139;-79
2021/08/02 09:59:41;;;;;;;3.72;1.33;;;;;;;18.54;53.22;101037.66;3561719;40;21020;-78
2021/08/02 10:02:08;;;;;;;1.67;0.90;;;;;;;18.49;52.58;101025.59;3574805;40;20052;-79
2021/08/02 10:04:43;;;;;;;4.70;1.50;;;;;;;18.67;52.39;101033.47;3574774;40;20061;-78
2021/08/02 10:07:16;;;;;;;3.28;1.45;;;;;;;18.74;52.14;101036.66;3565257;40;20117;-78
2021/08/02 10:09:43;;;;;;;2.80;1.15;;;;;;;18.66;51.90;101015.03;3571186;40;20345;-78
2021/08/02 10:12:11;;;;;;;3.95;1.52;;;;;;;18.78;51.67;101011.75;3570097;40;20078;-78
2021/08/02 10:14:40;;;;;;;4.60;1.58;;;;;;;18.90;51.74;101032.28;3577610;40;20061;-79
2021/08/02 10:17:10;;;;;;;3.05;1.27;;;;;;;18.90;51.32;101005.81;3575094;40;20067;-79
2021/08/02 10:19:42;;;;;;;3.28;1.50;;;;;;;18.97;51.42;100993.16;3567128;40;20448;-79
2021/08/02 10:22:11;;;;;;;2.30;1.17;;;;;;;19.20;51.89;101013.06;3560208;40;20056;-79
2021/08/02 10:24:48;;;;;;;2.88;1.23;;;;;;;19.53;51.85;101041.34;3579726;40;20537;-79
2021/08/02 10:27:30;;;;;;;4.80;1.70;;;;;;;19.69;51.34;101032.50;3569397;40;20049;-79
2021/08/02 10:30:24;;;;;;;5.05;1.98;;;;;;;19.83;51.14;101029.06;3574562;40;20103;-79
2021/08/02 10:32:57;;;;;;;4.37;1.80;;;;;;;19.95;49.88;101032.81;3565224;40;20937;-79
2021/08/02 10:35:31;;;;;;;4.05;1.70;;;;;;;20.03;50.08;101032.41;3569771;40;20323;-79
2021/08/02 10:38:01;;;;;;;4.38;1.83;;;;;;;19.93;50.14;101019.66;3569317;40;20033;-79
2021/08/02 10:40:28;;;;;;;4.97;1.80;;;;;;;19.74;50.25;100983.69;3556287;40;20051;-79
2021/08/02 10:42:57;;;;;;;5.85;2.00;;;;;;;20.05;50.14;101030.50;3569801;40;20063;-79
2021/08/02 10:45:32;;;;;;;5.47;2.17;;;;;;;19.96;50.51;101002.72;3566883;40;20144;-79
2021/08/02 10:48:00;;;;;;;5.20;2.05;;;;;;;20.05;50.88;101014.59;3564168;40;20057;-79
2021/08/02 10:50:42;;;;;;;4.82;1.92;;;;;;;20.13;50.43;100999.13;3566973;40;20378;-79
2021/08/02 10:53:19;;;;;;;6.20;2.38;;;;;;;20.43;50.29;101044.22;3573719;40;20077;-79
2021/08/02 10:55:49;;;;;;;;;;;;;;;20.54;51.02;101035.66;3576602;40;20089;-79
2021/08/02 10:58:30;;;;;;;4.45;1.60;;;;;;;20.53;49.53;101039.25;3563482;40;19988;-79
2021/08/02 11:01:02;;;;;;;3.63;1.33;;;;;;;20.45;49.62;101040.53;3559787;40;20148;-79
2021/08/02 11:03:37;;;;;;;4.05;1.83;;;;;;;20.44;50.32;101044.13;3572453;40;20568;-79
2021/08/02 11:06:17;;;;;;;6.53;1.83;;;;;;;20.37;50.15;101041.91;3559088;40;20061;-79
2021/08/02 11:08:46;;;;;;;4.65;2.03;;;;;;;20.30;50.92;101044.06;3577328;40;20727;-78
2021/08/02 11:11:20;;;;;;;4.28;1.65;;;;;;;20.31;50.54;101045.78;3568150;40;20056;-78
2021/08/02 11:14:04;;;;;;;4.40;2.10;;;;;;;20.26;50.44;101037.22;3553216;40;20062;-78
2021/08/02 11:16:43;;;;;;;4.88;2.00;;;;;;;20.02;50.34;101017.41;3561007;40;20071;-79
2021/08/02 11:19:24;;;;;;;4.80;2.13;;;;;;;20.17;50.38;101048.34;3562785;40;20115;-78
2021/08/02 11:21:55;;;;;;;4.18;1.48;;;;;;;20.11;50.70;101043.41;3552161;40;20139;-78
2021/08/02 11:24:22;;;;;;;3.60;1.60;;;;;;;20.02;51.27;101051.88;3572033;40;20315;-78
2021/08/02 11:26:55;;;;;;;4.40;1.75;;;;;;;20.01;51.44;101052.81;3575840;40;20057;-78
2021/08/02 11:29:30;;;;;;;4.82;1.77;;;;;;;20.01;50.86;101047.53;3557554;40;20101;-78
2021/08/02 11:31:57;;;;;;;4.75;2.00;;;;;;;19.95;52.19;101049.59;3572352;40;20569;-79
2021/08/02 11:34:27;;;;;;;4.30;1.90;;;;;;;19.98;52.03;101045.91;3583240;40;20055;-79
2021/08/02 11:36:57;;;;;;;6.35;1.52;;;;;;;19.79;51.70;101011.63;3566567;40;20068;-79
2021/08/02 11:39:26;;;;;;;4.70;1.85;;;;;;;19.87;51.75;101017.38;3573023;40;20044;-78
2021/08/02 11:53:35;;;;;;;5.80;2.47;;;;;;;20.07;52.94;101052.47;3581109;39;20532;-79
2021/08/02 11:56:06;;;;;;;5.47;2.22;;;;;;;20.11;53.36;101059.31;3574655;40;20070;-79
2021/08/02 11:58:47;;;;;;;5.15;2.47;;;;;;;20.03;52.89;101045.66;3574200;40;20555;-79
2021/08/02 12:01:15;;;;;;;5.93;2.58;;;;;;;19.89;54.26;101023.44;3570780;40;20048;-79
2021/08/02 12:03:47;;;;;;;11.95;2.90;;;;;;;20.18;53.25;101050.09;3576952;40;20106;-79
2021/08/02 12:06:16;;;;;;;8.57;3.42;;;;;;;20.04;53.86;101031.47;3565923;40;20075;-79